地図

経路データ

SID SEASON NUMBER BASIN SUBBASIN NAME ISO_TIME NATURE LAT LON WMO_WIND WMO_PRES WMO_AGENCY TRACK_TYPE DIST2LAND LANDFALL IFLAG USA_AGENCY USA_ATCF_ID USA_LAT USA_LON USA_RECORD USA_STATUS USA_WIND USA_PRES USA_SSHS USA_R34_NE USA_R34_SE USA_R34_SW USA_R34_NW USA_R50_NE USA_R50_SE USA_R50_SW USA_R50_NW USA_R64_NE USA_R64_SE USA_R64_SW USA_R64_NW USA_POCI USA_ROCI USA_RMW USA_EYE TOKYO_LAT TOKYO_LON TOKYO_GRADE TOKYO_WIND TOKYO_PRES TOKYO_R50_DIR TOKYO_R50_LONG TOKYO_R50_SHORT TOKYO_R30_DIR TOKYO_R30_LONG TOKYO_R30_SHORT TOKYO_LAND CMA_LAT CMA_LON CMA_CAT CMA_WIND CMA_PRES HKO_LAT HKO_LON HKO_CAT HKO_WIND HKO_PRES NEWDELHI_LAT NEWDELHI_LON NEWDELHI_GRADE NEWDELHI_WIND NEWDELHI_PRES NEWDELHI_CI NEWDELHI_DP NEWDELHI_POCI REUNION_LAT REUNION_LON REUNION_TYPE REUNION_WIND REUNION_PRES REUNION_TNUM REUNION_CI REUNION_RMW REUNION_R34_NE REUNION_R34_SE REUNION_R34_SW REUNION_R34_NW REUNION_R50_NE REUNION_R50_SE REUNION_R50_SW REUNION_R50_NW REUNION_R64_NE REUNION_R64_SE REUNION_R64_SW REUNION_R64_NW BOM_LAT BOM_LON BOM_TYPE BOM_WIND BOM_PRES BOM_TNUM BOM_CI BOM_RMW BOM_R34_NE BOM_R34_SE BOM_R34_SW BOM_R34_NW BOM_R50_NE BOM_R50_SE BOM_R50_SW BOM_R50_NW BOM_R64_NE BOM_R64_SE BOM_R64_SW BOM_R64_NW BOM_ROCI BOM_POCI BOM_EYE BOM_POS_METHOD BOM_PRES_METHOD NADI_LAT NADI_LON NADI_CAT NADI_WIND NADI_PRES WELLINGTON_LAT WELLINGTON_LON WELLINGTON_WIND WELLINGTON_PRES DS824_LAT DS824_LON DS824_STAGE DS824_WIND DS824_PRES TD9636_LAT TD9636_LON TD9636_STAGE TD9636_WIND TD9636_PRES TD9635_LAT TD9635_LON TD9635_WIND TD9635_PRES TD9635_ROCI NEUMANN_LAT NEUMANN_LON NEUMANN_CLASS NEUMANN_WIND NEUMANN_PRES MLC_LAT MLC_LON MLC_CLASS MLC_WIND MLC_PRES USA_GUST BOM_GUST BOM_GUST_PER REUNION_GUST REUNION_GUST_PER USA_SEAHGT USA_SEARAD_NE USA_SEARAD_SE USA_SEARAD_SW USA_SEARAD_NW STORM_SPEED STORM_DIR
1942085S15055 1942 17 SI MM NOT_NAMED 1942-03-25 18:00:00 NR -14.8000 55.0000 main 485 452 __________O___ -1 -14.8000 55.0000 1 7 251
1942085S15055 1942 17 SI MM NOT_NAMED 1942-03-25 21:00:00 NR -14.9099 54.6785 main 452 419 __________P___ -1 -14.9099 54.6785 1 6 250
1942085S15055 1942 17 SI MM NOT_NAMED 1942-03-26 00:00:00 NR -15.0155 54.3754 main 419 386 __________P___ -1 -15.0155 54.3754 1 6 250
1942085S15055 1942 17 SI MM NOT_NAMED 1942-03-26 03:00:00 NR -15.1134 54.1096 main 386 364 __________P___ -1 -15.1134 54.1096 1 5 248
1942085S15055 1942 17 SI MM NOT_NAMED 1942-03-26 06:00:00 TS -15.2000 53.9000 main 364 354 _________OO___ -1 -15.2000 53.9000 TC 25 -15.2000 53.9000 1 4 246
1942085S15055 1942 17 SI MM NOT_NAMED 1942-03-26 09:00:00 TS -15.2626 53.7695 main 354 343 _________PP___ -1 -15.2400 53.7900 TC 25 -15.2739 53.7592 1 2 239
1942085S15055 1942 17 SI MM NOT_NAMED 1942-03-26 12:00:00 TS -15.3242 53.6856 main 343 332 _________OP___ -1 -15.3000 53.7000 TC 25 -15.3423 53.6748 1 2 223
1942085S15055 1942 17 SI MM NOT_NAMED 1942-03-26 15:00:00 TS -15.4035 53.6353 main 332 332 _________PP___ -1 -15.3925 53.6425 TC 25 -15.4146 53.6280 1 2 205
1942085S15055 1942 17 SI MM NOT_NAMED 1942-03-26 18:00:00 TS -15.5000 53.6000 main 332 322 _________OO___ -1 -15.5000 53.6000 TC 25 -15.5000 53.6000 1 2 206
1942085S15055 1942 17 SI MM NOT_NAMED 1942-03-26 21:00:00 TS -15.5955 53.5394 main 322 322 _________PP___ -1 -15.5925 53.5425 TC 25 -15.5984 53.5364 1 2 207
1942085S15055 1942 17 SI MM NOT_NAMED 1942-03-27 00:00:00 TS -15.7062 53.4951 main 323 323 _________OP___ -1 -15.7000 53.5000 TC 25 -15.7124 53.4902 1 2 193
1942085S15055 1942 17 SI MM NOT_NAMED 1942-03-27 03:00:00 TS -15.8364 53.4795 main 324 324 _________PP___ -1 -15.8275 53.4850 TC 25 -15.8453 53.4739 1 3 0
1942085S15055 1942 17 SI MM NOT_NAMED 1942-03-27 06:00:00 TS -16.0000 53.5000 main 328 328 _________OO___ -1 -16.0000 53.5000 TC 25 -16.0000 53.5000 1 4 172
1942085S15055 1942 17 SI MM NOT_NAMED 1942-03-27 09:00:00 TS -16.2182 53.5367 main 333 333 _________PP___ -1 -16.2500 53.5200 TC 25 -16.1864 53.5535 1 5 165
1942085S15055 1942 17 SI MM NOT_NAMED 1942-03-27 12:00:00 TS -16.4461 53.6263 main 350 350 _________OP___ -1 -16.5000 53.6000 TC 25 -16.3923 53.6526 1 5 151
1942085S15055 1942 17 SI MM NOT_NAMED 1942-03-27 15:00:00 TS -16.6335 53.7815 main 377 377 _________PP___ -1 -16.6650 53.7625 TC 25 -16.6020 53.8004 1 5 135
1942085S15055 1942 17 SI MM NOT_NAMED 1942-03-27 18:00:00 TS -16.8000 54.0000 main 405 405 _________OO___ -1 -16.8000 54.0000 TC 25 -16.8000 54.0000 1 6 125
1942085S15055 1942 17 SI MM NOT_NAMED 1942-03-27 21:00:00 TS -16.9614 54.2713 main 443 442 _________PP___ -1 -16.9500 54.2850 TC 25 -16.9727 54.2577 1 6 120
1942085S15055 1942 17 SI MM NOT_NAMED 1942-03-28 00:00:00 TS -17.1152 54.5812 main 442 416 _________OP___ -1 -17.1000 54.6000 TC 25 -17.1303 54.5623 1 7 117
1942085S15055 1942 17 SI MM NOT_NAMED 1942-03-28 03:00:00 TS -17.2651 54.8967 main 416 387 _________PP___ -1 -17.2575 54.9075 TC 25 -17.2727 54.8858 1 7 116
1942085S15055 1942 17 SI MM NOT_NAMED 1942-03-28 06:00:00 TS -17.4000 55.2000 main 387 365 _________OO___ -1 -17.4000 55.2000 TC 25 -17.4000 55.2000 1 6 115
1942085S15055 1942 17 SI MM NOT_NAMED 1942-03-28 09:00:00 TS -17.5149 55.4631 main 359 337 _________PP___ -1 -17.5074 55.4576 TC 25 -17.5223 55.4686 1 5 114
1942085S15055 1942 17 SI MM NOT_NAMED 1942-03-28 12:00:00 TS -17.6149 55.7113 main 337 316 _________OP___ -1 -17.6000 55.7000 TC 25 -17.6298 55.7226 1 5 113
1942085S15055 1942 17 SI MM NOT_NAMED 1942-03-28 15:00:00 TS -17.7149 55.9614 main 311 291 _________PP___ -1 -17.7075 55.9575 TC 25 -17.7224 55.9654 1 5 112
1942085S15055 1942 17 SI MM NOT_NAMED 1942-03-28 18:00:00 TS -17.8000 56.2000 main 291 271 _________OO___ -1 -17.8000 56.2000 TC 25 -17.8000 56.2000 1 4 109
1942085S15055 1942 17 SI MM NOT_NAMED 1942-03-28 21:00:00 TS -17.8566 56.3960 main 271 263 _________PP___ -1 -17.8574 56.4001 TC 25 -17.8557 56.3919 1 4 105
1942085S15055 1942 17 SI MM NOT_NAMED 1942-03-29 00:00:00 TS -17.8996 56.5915 main 263 256 _________OP___ -1 -17.9000 56.6000 TC 25 -17.8991 56.5831 1 4 102
1942085S15055 1942 17 SI MM NOT_NAMED 1942-03-29 03:00:00 TS -17.9427 56.8064 main 256 238 _________PP___ -1 -17.9423 56.8051 TC 25 -17.9430 56.8076 1 5 102
1942085S15055 1942 17 SI MM NOT_NAMED 1942-03-29 06:00:00 TS -18.0000 57.1000 main 238 223 _________OO___ -1 -18.0000 57.1000 TC 25 -18.0000 57.1000 1 7 101
1942085S15055 1942 17 SI MM NOT_NAMED 1942-03-29 09:00:00 TS -18.0854 57.5446 main 223 213 _________PP___ -1 -18.0927 57.5699 TC 25 -18.0781 57.5193 1 9 102
1942085S15055 1942 17 SI MM NOT_NAMED 1942-03-29 12:00:00 TS -18.1854 58.0525 main 216 214 _________OP___ -1 -18.2000 58.1000 TC 25 -18.1709 58.0050 1 10 102
1942085S15055 1942 17 SI MM NOT_NAMED 1942-03-29 15:00:00 TS -18.2852 58.5391 main 218 218 _________PP___ -1 -18.2924 58.5651 TC 25 -18.2781 58.5131 1 9 103
1942085S15055 1942 17 SI MM NOT_NAMED 1942-03-29 18:00:00 TS -18.4000 59.0000 main 234 234 _________OO___ -1 -18.4000 59.0000 TC 25 -18.4000 59.0000 1 9 107
1942085S15055 1942 17 SI MM NOT_NAMED 1942-03-29 21:00:00 TS -18.5429 59.4174 main 252 244 _________PP___ -1 -18.5424 59.4150 TC 25 -18.5434 59.4199 1 8 111
1942085S15055 1942 17 SI MM NOT_NAMED 1942-03-30 00:00:00 TS -18.6998 59.8049 main 270 270 _________OP___ -1 -18.7000 59.8000 TC 25 -18.6996 59.8098 1 8 114
1942085S15055 1942 17 SI MM NOT_NAMED 1942-03-30 03:00:00 TS -18.8567 60.1712 main 294 294 _________PP___ -1 -18.8575 60.1725 TC 25 -18.8560 60.1699 1 7 115
1942085S15055 1942 17 SI MM NOT_NAMED 1942-03-30 06:00:00 TS -19.0000 60.5000 main 317 317 _________OO___ -1 -19.0000 60.5000 TC 25 -19.0000 60.5000 1 6 114
1942085S15055 1942 17 SI MM NOT_NAMED 1942-03-30 09:00:00 TS -19.1086 60.7788 main 341 341 _________PP___ -1 -19.1074 60.7576 TC 25 -19.1099 60.8001 1 5 112
1942085S15055 1942 17 SI MM NOT_NAMED 1942-03-30 12:00:00 TS -19.2035 61.0365 main 356 356 _________OP___ -1 -19.2000 61.0000 TC 25 -19.2070 61.0730 1 5 110
1942085S15055 1942 17 SI MM NOT_NAMED 1942-03-30 15:00:00 TS -19.2965 61.3135 main 382 382 _________PP___ -1 -19.2925 61.2926 TC 25 -19.3006 61.3344 1 6 110
1942085S15055 1942 17 SI MM NOT_NAMED 1942-03-30 18:00:00 TS -19.4000 61.6000 main 409 409 _________OO___ -1 -19.4000 61.6000 TC 25 -19.4000 61.6000 1 6 114
1942085S15055 1942 17 SI MM NOT_NAMED 1942-03-30 21:00:00 TS -19.5292 61.8622 main 437 435 _________PP___ -1 -19.5499 61.9000 TC 25 -19.5085 61.8245 1 6 118
1942085S15055 1942 17 SI MM NOT_NAMED 1942-03-31 00:00:00 TS -19.6627 62.1331 main 454 454 _________OP___ -1 -19.7000 62.2000 TC 25 -19.6255 62.0662 1 6 115
1942085S15055 1942 17 SI MM NOT_NAMED 1942-03-31 03:00:00 TS -19.7734 62.4076 main 483 483 _________PP___ -1 -19.7920 62.4404 TC 25 -19.7548 62.3747 1 7 111
1942085S15055 1942 17 SI MM NOT_NAMED 1942-03-31 06:00:00 TS -19.9000 62.8000 main 523 523 _________OO___ -1 -19.9000 62.8000 TC 25 -19.9000 62.8000 1 10 108
1942085S15055 1942 17 SI MM NOT_NAMED 1942-03-31 09:00:00 TS -20.0814 63.4253 main 584 584 _________PP___ -1 -20.0927 63.4323 TC 25 -20.0702 63.4184 1 13 106
1942085S15055 1942 17 SI MM NOT_NAMED 1942-03-31 12:00:00 TS -20.2760 64.1758 main 667 667 _________OP___ -1 -20.3000 64.2000 TC 25 -20.2520 64.1516 1 15 104
1942085S15055 1942 17 SI MM NOT_NAMED 1942-03-31 15:00:00 TS -20.4451 64.9496 main 740 740 _________PP___ -1 -20.4575 64.9651 TC 25 -20.4326 64.9342 1 15 103
1942085S15055 1942 17 SI MM NOT_NAMED 1942-03-31 18:00:00 TS -20.6000 65.7000 main 823 823 _________OO___ -1 -20.6000 65.7000 TC 25 -20.6000 65.7000 1 14 103
1942085S15055 1942 17 SI MM NOT_NAMED 1942-03-31 21:00:00 TS -20.7516 66.3562 main 896 896 _________PP___ -1 -20.7570 66.3151 TC 25 -20.7463 66.3973 1 12 104
1942085S15055 1942 17 SI MM NOT_NAMED 1942-04-01 00:00:00 TS -20.8873 66.9662 main 959 959 _________OP___ -1 -20.9000 66.9000 TC 25 -20.8746 67.0325 1 12 102
1942085S15055 1942 17 SI MM NOT_NAMED 1942-04-01 03:00:00 TS -21.0007 67.5794 main 1022 1022 _________PP___ -1 -21.0107 67.5324 TC 25 -20.9908 67.6263 1 12 100
1942085S15055 1942 17 SI MM NOT_NAMED 1942-04-01 06:00:00 TS -21.1000 68.2000 main 1085 _________OO___ -1 -21.1000 68.2000 TC 25 -21.1000 68.2000 1 12 100

IBTrACS Databaseについて

本データベースは、米国NOAAが公開する1842年以降の世界の熱帯低気圧のベストトラックデータアーカイブInternational Best Track Archive for Climate Stewardship (IBTrACS)を、ウェブで閲覧しやすい形式に変換したものです。

最終更新日:2021-12-03